Time;durP1;ratioP1;P1;durP2;ratioP2;P2;SDS_P1;SDS_P2;PMS_P1;PMS_P2;Temp;Humidity;BMP_temperature;BMP_pressure;BME280_temperature;BME280_humidity;BME280_pressure;Samples;Min_cycle;Max_cycle;Signal;HPM_P1;HPM_P2
2023/09/14 00:00:42;;;;;;;5.90;3.90;;;;;;;19.71;nan;99863.19;4919806;29;20525;-78
2023/09/14 00:03:08;;;;;;;5.60;3.17;;;;;;;19.71;nan;99862.38;4910763;29;20269;-78
2023/09/14 00:05:45;;;;;;;3.60;3.10;;;;;;;19.73;nan;99860.41;4905977;29;20865;-78
2023/09/14 00:08:11;;;;;;;4.73;3.50;;;;;;;19.70;nan;99860.72;4906808;29;20243;-78
2023/09/14 00:10:36;;;;;;;5.23;3.40;;;;;;;19.69;nan;99861.69;4911651;29;21087;-77
2023/09/14 00:13:02;;;;;;;4.70;3.13;;;;;;;19.66;nan;99865.50;4914571;29;20779;-78
2023/09/14 00:15:28;;;;;;;3.50;2.80;;;;;;;19.65;nan;99866.44;4914509;29;20218;-78
2023/09/14 00:17:54;;;;;;;4.50;3.87;;;;;;;19.65;nan;99866.44;4913571;29;20428;-78
2023/09/14 00:20:24;;;;;;;3.27;2.80;;;;;;;19.66;nan;99869.00;4918483;29;20210;-78
2023/09/14 00:22:51;;;;;;;4.47;3.40;;;;;;;19.63;nan;99861.28;4916917;29;20814;-78
2023/09/14 00:25:17;;;;;;;4.50;3.10;;;;;;;19.61;nan;99865.91;4910247;29;20433;-77
2023/09/14 00:27:43;;;;;;;3.67;3.33;;;;;;;19.61;nan;99863.25;4907563;29;20452;-77
2023/09/14 00:30:09;;;;;;;4.57;3.17;;;;;;;19.60;nan;99871.38;4899814;29;20464;-77
2023/09/14 00:32:39;;;;;;;3.73;3.43;;;;;;;19.60;nan;99866.88;4914855;29;20306;-77
2023/09/14 00:35:14;;;;;;;3.27;2.87;;;;;;;19.60;nan;99866.88;4894122;29;20754;-77
2023/09/14 00:37:41;;;;;;;3.83;2.80;;;;;;;19.61;nan;99865.06;4916865;29;20840;-77
2023/09/14 00:40:08;;;;;;;3.50;3.20;;;;;;;19.59;nan;99862.56;4893221;29;20776;-77
2023/09/14 00:42:59;;;;;;;4.90;3.23;;;;;;;19.59;nan;99859.88;4911853;29;20477;-77
2023/09/14 00:45:25;;;;;;;3.17;2.73;;;;;;;19.58;nan;99868.03;4909413;29;20474;-77
2023/09/14 00:47:54;;;;;;;7.13;4.27;;;;;;;19.55;nan;99858.53;4912477;29;20757;-77
2023/09/14 00:50:20;;;;;;;6.90;3.23;;;;;;;19.53;nan;99857.00;4912311;29;20201;-77
2023/09/14 00:52:54;;;;;;;3.70;3.40;;;;;;;19.53;nan;99859.66;4913109;29;20480;-77
2023/09/14 00:55:20;;;;;;;4.40;2.87;;;;;;;19.51;nan;99862.47;4913519;29;20438;-77
2023/09/14 00:57:49;;;;;;;4.43;3.17;;;;;;;19.50;nan;99863.47;4914331;29;20527;-77
2023/09/14 01:00:18;;;;;;;3.10;2.70;;;;;;;19.46;nan;99854.91;4898966;29;20471;-77
2023/09/14 01:02:44;;;;;;;3.40;2.87;;;;;;;19.44;nan;99862.22;4916175;29;20482;-77
2023/09/14 01:05:12;;;;;;;4.30;3.40;;;;;;;19.42;nan;99852.72;4908472;29;20905;-77
2023/09/14 01:07:39;;;;;;;5.20;3.13;;;;;;;19.39;nan;99858.34;4916326;29;20488;-77
2023/09/14 01:10:06;;;;;;;3.37;2.67;;;;;;;19.33;nan;99858.91;4890826;29;20867;-77
2023/09/14 01:12:32;;;;;;;11.73;3.33;;;;;;;19.27;nan;99857.66;4896049;29;20488;-77
2023/09/14 01:15:06;;;;;;;4.30;2.40;;;;;;;19.22;nan;99855.44;4899499;29;20527;-77
2023/09/14 01:17:46;;;;;;;4.13;3.03;;;;;;;19.20;nan;99854.78;4898730;29;20478;-77
2023/09/14 01:20:49;;;;;;;4.37;3.37;;;;;;;19.16;nan;99856.03;4889237;29;20956;-78
2023/09/14 01:23:28;;;;;;;6.23;3.17;;;;;;;19.06;nan;99852.56;4895228;29;20608;-77
2023/09/14 01:25:55;;;;;;;4.90;3.30;;;;;;;18.99;nan;99856.81;4914306;29;20841;-77
2023/09/14 01:28:21;;;;;;;4.67;3.23;;;;;;;18.91;nan;99862.03;4914525;23;21361;-77
2023/09/14 01:30:46;;;;;;;4.67;3.73;;;;;;;18.86;nan;99857.13;4932141;28;20452;-77
2023/09/14 01:33:14;;;;;;;3.73;3.00;;;;;;;18.84;nan;99859.09;4940690;28;20528;-78
2023/09/14 01:35:52;;;;;;;4.63;3.60;;;;;;;18.84;nan;99858.25;4933387;29;20448;-78
2023/09/14 01:38:17;;;;;;;3.20;2.90;;;;;;;18.84;nan;99855.59;4948055;28;20206;-78
2023/09/14 01:40:44;;;;;;;2.93;2.73;;;;;;;18.85;nan;99854.59;4929075;29;20464;-78
2023/09/14 01:43:12;;;;;;;4.77;3.03;;;;;;;18.83;nan;99865.41;4930352;28;20479;-79
2023/09/14 01:45:41;;;;;;;3.87;2.93;;;;;;;18.79;nan;99861.34;4940922;28;20484;-78
2023/09/14 01:48:07;;;;;;;9.47;3.20;;;;;;;18.73;nan;99870.72;4942034;28;20986;-77
2023/09/14 01:50:32;;;;;;;3.67;3.30;;;;;;;18.66;nan;99866.97;4941053;28;20520;-76
2023/09/14 01:52:58;;;;;;;3.43;2.57;;;;;;;18.63;nan;99874.38;4928212;29;20256;-77
2023/09/14 01:55:23;;;;;;;3.97;3.30;;;;;;;18.55;nan;99880.41;4928995;28;20800;-78
2023/09/14 01:57:49;;;;;;;3.70;3.40;;;;;;;18.48;nan;99874.00;4940186;28;20209;-77
2023/09/14 02:00:15;;;;;;;3.10;2.60;;;;;;;18.43;nan;99869.09;4943764;28;20194;-77
2023/09/14 02:02:42;;;;;;;2.30;2.10;;;;;;;18.42;nan;99879.88;4930529;29;20562;-78
2023/09/14 02:05:08;;;;;;;4.30;2.50;;;;;;;18.38;nan;99875.81;4940192;28;21094;-77
2023/09/14 02:07:33;;;;;;;6.67;3.63;;;;;;;18.32;nan;99875.41;4942343;29;20448;-77
2023/09/14 02:09:58;;;;;;;4.40;2.60;;;;;;;18.31;nan;99879.03;4930326;29;20201;-78
2023/09/14 02:12:24;;;;;;;4.93;2.63;;;;;;;18.28;nan;99879.34;4931167;29;20197;-77
2023/09/14 02:14:51;;;;;;;3.20;2.37;;;;;;;18.16;nan;99879.59;4951984;28;20201;-76
2023/09/14 02:17:17;;;;;;;2.23;2.00;;;;;;;18.02;nan;99884.34;4938041;28;20217;-76
2023/09/14 02:19:43;;;;;;;2.30;2.10;;;;;;;17.90;nan;99886.31;4929364;29;20485;-78
2023/09/14 02:22:09;;;;;;;2.03;1.83;;;;;;;17.80;nan;99898.72;4932219;29;20749;-77
2023/09/14 02:24:34;;;;;;;3.00;2.07;;;;;;;17.73;nan;99892.25;4942083;28;20468;-78
2023/09/14 02:27:01;;;;;;;3.33;2.00;;;;;;;17.70;nan;99890.69;4924006;29;20213;-77
2023/09/14 02:29:26;;;;;;;2.30;2.10;;;;;;;17.72;nan;99887.91;4940989;28;20507;-77
2023/09/14 02:31:52;;;;;;;3.20;2.33;;;;;;;17.78;nan;99879.38;4929360;29;20209;-77
2023/09/14 02:34:19;;;;;;;2.87;2.57;;;;;;;17.85;nan;99885.03;4940498;28;20225;-76
2023/09/14 02:36:44;;;;;;;3.47;2.83;;;;;;;17.88;nan;99887.41;4941440;28;20473;-76
2023/09/14 02:39:10;;;;;;;3.33;3.03;;;;;;;17.88;nan;99888.25;4925950;29;20308;-77
2023/09/14 02:41:35;;;;;;;3.93;3.50;;;;;;;17.92;nan;99887.00;4930256;29;20232;-77
2023/09/14 02:44:01;;;;;;;3.03;2.63;;;;;;;17.96;nan;99886.69;4926010;29;20283;-77
2023/09/14 02:46:27;;;;;;;3.13;2.83;;;;;;;17.95;nan;99882.38;4922075;28;20193;-77
2023/09/14 02:48:53;;;;;;;3.60;3.30;;;;;;;17.95;nan;99871.75;4927729;29;20524;-77
2023/09/14 02:51:18;;;;;;;5.13;4.30;;;;;;;17.98;nan;99874.97;4937329;29;20291;-82
2023/09/14 02:53:44;;;;;;;4.03;3.63;;;;;;;18.01;nan;99877.38;4938795;29;20280;-77
2023/09/14 02:56:10;;;;;;;4.13;3.70;;;;;;;17.99;nan;99883.78;4941022;29;20216;-79
2023/09/14 02:58:36;;;;;;;3.70;3.40;;;;;;;17.98;nan;99890.06;4922228;29;20542;-77
2023/09/14 03:01:09;;;;;;;5.63;3.70;;;;;;;17.96;nan;99884.03;4933122;28;20461;-80
2023/09/14 03:03:36;;;;;;;4.75;3.38;;;;;;;17.97;nan;99878.59;4920789;29;20936;-77
2023/09/14 03:06:02;;;;;;;4.20;3.27;;;;;;;17.99;nan;99876.66;4925170;28;20204;-77
2023/09/14 03:08:27;;;;;;;4.50;3.33;;;;;;;18.02;nan;99886.19;4925540;28;20469;-77
2023/09/14 03:10:53;;;;;;;4.90;3.50;;;;;;;18.00;nan;99882.81;4934986;28;20205;-77
2023/09/14 03:13:18;;;;;;;8.10;3.93;;;;;;;17.98;nan;99887.41;4933699;28;20201;-77
2023/09/14 03:15:44;;;;;;;6.57;3.90;;;;;;;17.98;nan;99890.91;4924067;29;20697;-79
2023/09/14 03:18:09;;;;;;;6.20;3.90;;;;;;;17.98;nan;99890.06;4922402;28;20275;-80
2023/09/14 03:20:35;;;;;;;5.00;3.73;;;;;;;17.96;nan;99887.56;4921914;29;20201;-78
2023/09/14 03:23:02;;;;;;;4.20;3.33;;;;;;;17.91;nan;99893.28;4922562;28;20590;-77
2023/09/14 03:25:28;;;;;;;2.83;2.57;;;;;;;17.87;nan;99880.41;4924045;28;20196;-78
2023/09/14 03:27:54;;;;;;;5.00;3.70;;;;;;;17.82;nan;99886.16;4921362;29;20460;-78
2023/09/14 03:30:20;;;;;;;3.77;3.33;;;;;;;17.81;nan;99888.94;4935073;28;21006;-77
2023/09/14 03:32:45;;;;;;;3.77;3.20;;;;;;;17.82;nan;99887.94;4935577;28;20763;-77
2023/09/14 03:35:11;;;;;;;6.00;4.20;;;;;;;17.81;nan;99903.06;4936281;28;20303;-77
2023/09/14 03:37:36;;;;;;;3.40;3.10;;;;;;;17.73;nan;99897.56;4936404;28;20221;-77
2023/09/14 03:40:04;;;;;;;5.70;2.80;;;;;;;17.63;nan;99896.69;4924282;29;20200;-81
2023/09/14 03:42:31;;;;;;;3.70;2.97;;;;;;;17.55;nan;99900.03;4923193;28;20263;-80
2023/09/14 03:44:56;;;;;;;2.17;2.03;;;;;;;17.48;nan;99898.88;4939285;28;20448;-80
2023/09/14 03:47:22;;;;;;;2.37;2.00;;;;;;;17.43;nan;99901.09;4935772;28;20449;-79
2023/09/14 03:49:48;;;;;;;1.70;1.60;;;;;;;17.35;nan;99899.13;4924798;29;20216;-78
2023/09/14 03:52:13;;;;;;;3.33;2.60;;;;;;;17.27;nan;99898.09;4920649;28;20460;-77
2023/09/14 03:54:39;;;;;;;2.70;1.90;;;;;;;17.17;nan;99898.06;4935077;28;20296;-77
2023/09/14 03:57:14;;;;;;;2.30;2.10;;;;;;;17.12;nan;99905.56;4918883;28;20260;-79
2023/09/14 03:59:41;;;;;;;2.80;2.60;;;;;;;17.12;nan;99895.81;4919295;29;20224;-77
2023/09/14 04:02:08;;;;;;;3.60;2.50;;;;;;;17.15;nan;99906.16;4934614;28;20453;-78
2023/09/14 04:04:34;;;;;;;2.80;2.40;;;;;;;17.15;nan;99898.22;4917801;28;20490;-77
2023/09/14 04:06:59;;;;;;;3.07;2.33;;;;;;;17.18;nan;99895.28;4921533;28;20535;-77
2023/09/14 04:09:29;;;;;;;4.83;3.23;;;;;;;17.23;nan;99902.84;4926023;29;20251;-77
2023/09/14 04:11:56;;;;;;;5.13;2.83;;;;;;;17.27;nan;99901.59;4936832;28;20589;-77
2023/09/14 04:14:21;;;;;;;4.90;3.20;;;;;;;17.31;nan;99905.69;4932356;28;20452;-77
2023/09/14 04:16:47;;;;;;;3.10;2.50;;;;;;;17.35;nan;99907.09;4932897;28;20858;-77
2023/09/14 04:19:14;;;;;;;5.07;4.07;;;;;;;17.37;nan;99905.13;4920528;28;20246;-77
2023/09/14 04:21:43;;;;;;;2.87;2.50;;;;;;;17.40;nan;99898.72;4924251;28;21439;-77
2023/09/14 04:24:09;;;;;;;2.63;2.43;;;;;;;17.43;nan;99907.25;4919042;29;20987;-80
2023/09/14 04:26:35;;;;;;;3.63;2.77;;;;;;;17.47;nan;99906.03;4924254;29;20558;-79
2023/09/14 04:29:01;;;;;;;3.07;2.70;;;;;;;17.53;nan;99903.81;4923280;29;20479;-78
2023/09/14 04:31:26;;;;;;;3.00;2.30;;;;;;;17.58;nan;99909.53;4922651;29;20292;-77
2023/09/14 04:33:52;;;;;;;3.10;2.77;;;;;;;17.62;nan;99910.94;4918599;29;20792;-77
2023/09/14 04:36:17;;;;;;;4.90;3.10;;;;;;;17.68;nan;99913.06;4920200;28;20452;-77
2023/09/14 04:38:44;;;;;;;4.27;3.70;;;;;;;17.75;nan;99913.38;4921113;29;20601;-77
2023/09/14 04:41:10;;;;;;;3.80;3.30;;;;;;;17.81;nan;99913.69;4923126;29;20453;-77
2023/09/14 04:43:38;;;;;;;3.63;3.00;;;;;;;17.87;nan;99921.09;4926105;29;20322;-79
2023/09/14 04:46:04;;;;;;;4.13;3.20;;;;;;;17.95;nan;99923.09;4934256;28;20185;-79
2023/09/14 04:48:31;;;;;;;4.70;4.20;;;;;;;17.99;nan;99915.69;4937141;28;21020;-78
2023/09/14 04:50:57;;;;;;;4.67;4.17;;;;;;;18.02;nan;99921.56;4934411;28;20452;-78
2023/09/14 04:53:24;;;;;;;4.40;3.70;;;;;;;18.04;nan;99916.97;4923624;28;20224;-79
2023/09/14 04:55:50;;;;;;;6.77;3.77;;;;;;;18.03;nan;99915.25;4919517;29;20464;-80
2023/09/14 04:58:16;;;;;;;3.40;3.13;;;;;;;18.04;nan;99918.78;4934762;28;20483;-79
2023/09/14 05:00:42;;;;;;;16.30;4.03;;;;;;;18.05;nan;99920.44;4922982;29;20213;-84
2023/09/14 05:03:08;;;;;;;4.27;3.77;;;;;;;18.06;nan;99912.31;4930126;28;20292;-81
2023/09/14 05:05:34;;;;;;;6.03;3.57;;;;;;;18.01;nan;99919.91;4932698;29;20868;-82
2023/09/14 05:08:00;;;;;;;8.63;3.87;;;;;;;17.96;nan;99916.81;4926746;28;21000;-80
2023/09/14 05:10:27;;;;;;;3.83;3.43;;;;;;;17.92;nan;99932.16;4930762;28;20551;-80
2023/09/14 05:12:52;;;;;;;7.77;5.07;;;;;;;17.90;nan;99926.16;4929423;28;20323;-81
2023/09/14 05:15:18;;;;;;;7.40;6.67;;;;;;;17.87;nan;99931.72;4948549;28;20566;-80
2023/09/14 05:17:44;;;;;;;4.47;3.87;;;;;;;17.82;nan;99930.47;4938005;28;20300;-81
2023/09/14 05:20:11;;;;;;;7.70;5.70;;;;;;;17.80;nan;99929.78;4937205;28;20613;-80
2023/09/14 05:22:38;;;;;;;7.10;5.27;;;;;;;17.78;nan;99929.03;4923678;29;20457;-81
2023/09/14 05:25:07;;;;;;;9.17;4.93;;;;;;;17.78;nan;99937.84;4924484;28;20457;-81
2023/09/14 05:27:40;;;;;;;7.03;5.37;;;;;;;17.84;nan;99933.84;4936558;28;20456;-80
2023/09/14 05:30:08;;;;;;;6.80;5.73;;;;;;;17.88;nan;99938.75;4925576;28;20511;-79
2023/09/14 05:32:34;;;;;;;6.70;5.30;;;;;;;17.96;nan;99943.38;4925264;29;20456;-82
2023/09/14 05:35:00;;;;;;;7.30;5.80;;;;;;;18.01;nan;99940.28;4942359;28;20642;-80
2023/09/14 05:37:26;;;;;;;10.23;8.20;;;;;;;18.07;nan;99935.28;4930944;28;20456;-80
2023/09/14 05:39:51;;;;;;;12.20;6.73;;;;;;;18.05;nan;99939.06;4948461;28;20240;-81
2023/09/14 05:42:17;;;;;;;10.50;6.30;;;;;;;17.99;nan;99945.75;4926683;28;20220;-82
2023/09/14 05:44:43;;;;;;;9.93;6.83;;;;;;;17.95;nan;99946.16;4925318;29;20208;-80
2023/09/14 05:47:08;;;;;;;7.37;6.20;;;;;;;17.96;nan;99951.34;4922271;28;20452;-81
2023/09/14 05:49:34;;;;;;;10.27;8.80;;;;;;;17.98;nan;99946.72;4921816;29;20209;-80
2023/09/14 05:51:59;;;;;;;7.70;5.63;;;;;;;18.04;nan;99945.38;4931927;28;20204;-80
2023/09/14 05:54:24;;;;;;;14.63;6.53;;;;;;;18.08;nan;99946.75;4931665;28;20217;-82
2023/09/14 05:56:50;;;;;;;9.63;6.33;;;;;;;18.10;nan;99952.78;4920052;29;20220;-80
2023/09/14 05:59:16;;;;;;;9.50;8.07;;;;;;;18.07;nan;99953.06;4935776;28;20213;-82
2023/09/14 06:01:42;;;;;;;7.57;6.73;;;;;;;18.08;nan;99952.06;4928336;28;20222;-82
2023/09/14 06:04:08;;;;;;;6.93;5.60;;;;;;;18.10;nan;99955.44;4938779;28;20471;-80
2023/09/14 06:06:33;;;;;;;9.07;7.10;;;;;;;18.10;nan;99958.09;4942518;28;20452;-82
2023/09/14 06:08:59;;;;;;;13.20;7.83;;;;;;;18.11;nan;99965.09;4944162;28;20255;-82
2023/09/14 06:11:28;;;;;;;13.00;9.73;;;;;;;18.13;nan;99957.81;4928231;28;20716;-80
2023/09/14 06:13:54;;;;;;;16.07;9.30;;;;;;;18.13;nan;99958.66;4933071;28;20483;-81
2023/09/14 06:16:20;;;;;;;13.20;11.03;;;;;;;18.12;nan;99956.97;4935397;28;20750;-81
2023/09/14 06:18:46;;;;;;;15.70;9.63;;;;;;;18.13;nan;99965.78;4939600;28;20480;-82
2023/09/14 06:21:12;;;;;;;12.83;9.63;;;;;;;18.18;nan;99973.38;4938412;28;20255;-82
2023/09/14 06:23:38;;;;;;;17.17;10.20;;;;;;;18.21;nan;99957.97;4943173;28;20448;-81
2023/09/14 06:26:04;;;;;;;13.43;9.33;;;;;;;18.25;nan;99956.69;4942332;28;20519;-81
2023/09/14 06:28:29;;;;;;;15.30;10.50;;;;;;;18.30;nan;99959.78;4945171;28;20536;-82
2023/09/14 06:30:55;;;;;;;16.93;10.83;;;;;;;18.34;nan;99963.88;4938527;28;20574;-80
2023/09/14 06:33:21;;;;;;;14.43;10.30;;;;;;;18.40;nan;99962.47;4943712;28;20201;-82
2023/09/14 06:35:46;;;;;;;19.07;12.00;;;;;;;18.48;nan;99964.44;4943498;28;20456;-81
2023/09/14 06:38:12;;;;;;;13.87;10.57;;;;;;;18.49;nan;99960.78;4938420;28;20209;-80
2023/09/14 06:40:37;;;;;;;18.93;11.70;;;;;;;18.51;nan;99964.97;4939291;28;20208;-83
2023/09/14 06:43:03;;;;;;;19.33;13.53;;;;;;;18.55;nan;99960.22;4944793;28;20732;-82
2023/09/14 06:45:28;;;;;;;28.53;15.13;;;;;;;18.60;nan;99960.63;4942648;28;20574;-82
2023/09/14 06:47:53;;;;;;;21.37;16.20;;;;;;;18.66;nan;99965.41;4941928;28;20224;-82
2023/09/14 06:50:19;;;;;;;18.00;13.17;;;;;;;18.71;nan;99960.50;4950910;28;20209;-83
2023/09/14 06:52:44;;;;;;;23.00;17.70;;;;;;;18.77;nan;99964.47;4956628;28;20272;-82
2023/09/14 06:55:10;;;;;;;30.33;15.70;;;;;;;18.82;nan;99954.19;4957566;28;20198;-81
2023/09/14 06:57:35;;;;;;;23.93;17.10;;;;;;;18.88;nan;99966.97;4932827;28;20213;-81
2023/09/14 07:00:01;;;;;;;20.40;14.40;;;;;;;18.92;nan;99954.19;4935760;28;20207;-83
2023/09/14 07:02:26;;;;;;;20.20;14.57;;;;;;;18.95;nan;99956.56;4936448;28;23418;-81
2023/09/14 07:04:52;;;;;;;22.97;15.40;;;;;;;18.97;nan;99959.94;4918529;29;20213;-80
2023/09/14 07:07:17;;;;;;;19.73;14.47;;;;;;;19.01;nan;99958.69;4932937;28;20292;-81
2023/09/14 07:09:43;;;;;;;20.07;14.07;;;;;;;19.04;nan;99955.72;4918844;29;20543;-80
2023/09/14 07:12:08;;;;;;;19.77;13.90;;;;;;;19.05;nan;99962.72;4933408;28;20708;-81
2023/09/14 07:14:34;;;;;;;19.33;15.27;;;;;;;19.07;nan;99966.09;4933816;28;20208;-83
2023/09/14 07:16:59;;;;;;;18.40;13.77;;;;;;;19.08;nan;99959.78;4931749;28;20209;-81
2023/09/14 07:19:26;;;;;;;20.50;13.73;;;;;;;19.11;nan;99972.78;4934636;28;20205;-81
2023/09/14 07:21:54;;;;;;;19.63;13.30;;;;;;;19.16;nan;99969.72;4933530;28;20450;-80
2023/09/14 07:24:20;;;;;;;29.33;15.33;;;;;;;19.19;nan;99964.94;4934720;28;20485;-80
2023/09/14 07:26:45;;;;;;;19.53;14.00;;;;;;;19.18;nan;99963.25;4939050;28;20448;-83
2023/09/14 07:29:11;;;;;;;20.63;13.50;;;;;;;19.18;nan;99957.94;4970857;23;20323;-91
2023/09/14 07:31:37;;;;;;;18.33;12.43;;;;;;;19.20;nan;99963.13;4937438;28;20316;-89
2023/09/14 07:34:03;;;;;;;18.53;14.73;;;;;;;19.22;nan;99953.97;4937815;28;21065;-90
2023/09/14 07:36:28;;;;;;;19.97;13.00;;;;;;;19.26;nan;99956.38;4940818;28;20217;-90
2023/09/14 07:38:54;;;;;;;20.17;13.90;;;;;;;19.32;nan;99966.44;4936344;28;20205;-89
2023/09/14 07:41:19;;;;;;;18.50;14.53;;;;;;;19.35;nan;99959.00;4934765;28;20329;-89
2023/09/14 07:43:47;;;;;;;19.17;13.10;;;;;;;19.39;nan;99964.88;4939472;28;20228;-91
2023/09/14 07:46:13;;;;;;;16.00;13.20;;;;;;;19.44;nan;99974.13;4935222;28;20193;-89
2023/09/14 07:48:38;;;;;;;17.00;12.87;;;;;;;19.49;nan;99971.00;4938720;28;20876;-90
2023/09/14 07:51:04;;;;;;;16.93;12.30;;;;;;;19.49;nan;99976.31;4935536;28;20288;-89
2023/09/14 07:53:34;;;;;;;16.83;12.60;;;;;;;19.52;nan;99980.53;4940447;28;20196;-91
2023/09/14 07:55:59;;;;;;;16.40;12.43;;;;;;;19.53;nan;99977.72;4933509;28;20235;-90
2023/09/14 07:58:25;;;;;;;17.00;13.20;;;;;;;19.53;nan;99983.06;4918632;28;21045;-90
2023/09/14 08:00:54;;;;;;;15.07;11.70;;;;;;;19.55;nan;99982.91;4935742;28;20224;-90
2023/09/14 08:03:19;;;;;;;19.80;13.37;;;;;;;19.60;nan;99983.28;4940498;28;20200;-90
2023/09/14 08:05:46;;;;;;;14.23;11.20;;;;;;;19.67;nan;99985.25;4937712;28;20927;-90
2023/09/14 08:08:12;;;;;;;16.30;13.50;;;;;;;19.77;nan;99984.41;4933001;28;20674;-91
2023/09/14 08:10:37;;;;;;;16.60;12.03;;;;;;;19.83;nan;99983.81;4930786;28;21002;-90
2023/09/14 08:13:06;;;;;;;19.87;12.80;;;;;;;19.81;nan;99985.78;4939098;28;20216;-90
2023/09/14 08:15:35;;;;;;;18.00;11.07;;;;;;;19.83;nan;99981.97;4937018;28;20804;-90
2023/09/14 08:18:00;;;;;;;20.43;12.43;;;;;;;19.84;nan;99982.81;4935440;28;20534;-90
2023/09/14 08:20:28;;;;;;;15.60;10.73;;;;;;;19.90;nan;99979.53;4930951;28;20296;-90
2023/09/14 08:22:54;;;;;;;17.87;12.60;;;;;;;19.98;nan;99987.66;4938018;28;20207;-90
2023/09/14 08:25:27;;;;;;;16.57;10.60;;;;;;;20.04;nan;99984.38;4935902;28;20456;-89
2023/09/14 08:27:53;;;;;;;17.93;11.80;;;;;;;20.14;nan;99986.97;4936587;28;20469;-91
2023/09/14 08:30:24;;;;;;;18.07;12.03;;;;;;;20.23;nan;99990.59;4914613;28;20486;-89
2023/09/14 08:32:49;;;;;;;17.87;11.60;;;;;;;20.35;nan;99992.03;4920415;28;20469;-90
2023/09/14 08:35:28;;;;;;;13.90;11.77;;;;;;;20.53;nan;99992.06;4918114;28;20431;-88
2023/09/14 08:37:54;;;;;;;15.47;10.40;;;;;;;20.66;nan;99991.72;4916308;28;20213;-89
2023/09/14 08:40:20;;;;;;;15.23;10.13;;;;;;;20.78;nan;99993.13;4922815;28;20533;-90
2023/09/14 08:42:52;;;;;;;19.03;11.90;;;;;;;20.88;nan;99993.91;4919526;28;21055;-89
2023/09/14 08:45:38;;;;;;;17.00;11.80;;;;;;;20.92;nan;99989.06;4920355;28;20509;-90
2023/09/14 08:48:05;;;;;;;18.07;12.17;;;;;;;20.93;nan;99988.94;4924266;28;20538;-89
2023/09/14 08:50:33;;;;;;;19.03;11.20;;;;;;;21.01;nan;99988.16;4918238;28;20437;-89
2023/09/14 08:52:59;;;;;;;17.83;12.30;;;;;;;21.14;nan;99987.72;4917883;28;20890;-89
2023/09/14 08:55:38;;;;;;;16.40;11.90;;;;;;;21.23;nan;99980.63;4921703;28;20450;-91
2023/09/14 08:58:04;;;;;;;16.60;12.60;;;;;;;21.29;nan;99980.00;4919866;28;20686;-91
2023/09/14 09:00:31;;;;;;;15.73;12.33;;;;;;;21.40;nan;99985.09;4920316;28;20466;-88
2023/09/14 09:02:57;;;;;;;20.30;12.10;;;;;;;21.52;nan;99980.31;4919997;28;20997;-89
2023/09/14 09:05:24;;;;;;;17.07;10.73;;;;;;;21.59;nan;99978.69;4920753;28;20475;-90
2023/09/14 09:07:52;;;;;;;17.30;11.67;;;;;;;21.61;nan;99976.69;4921169;28;20501;-89
2023/09/14 09:10:28;;;;;;;18.00;10.77;;;;;;;21.61;nan;99974.84;4920097;28;20438;-90
2023/09/14 09:12:58;;;;;;;15.07;10.90;;;;;;;21.58;nan;99971.69;4919551;28;20437;-90
2023/09/14 09:15:26;;;;;;;19.83;11.10;;;;;;;21.63;nan;99974.72;4918947;28;20482;-90
2023/09/14 09:17:53;;;;;;;14.17;9.40;;;;;;;21.70;nan;99959.69;4920366;28;20598;-89
2023/09/14 09:20:22;;;;;;;14.97;9.40;;;;;;;21.74;nan;99966.41;4919758;28;20451;-90
2023/09/14 09:22:57;;;;;;;13.73;9.77;;;;;;;21.83;nan;99965.41;4921041;28;20439;-89
2023/09/14 09:25:23;;;;;;;10.67;8.03;;;;;;;21.95;nan;99963.28;4916476;28;21005;-90
2023/09/14 09:28:01;;;;;;;11.50;8.27;;;;;;;22.05;nan;99963.16;4917173;28;20430;-88
2023/09/14 09:30:32;;;;;;;13.13;7.60;;;;;;;22.15;nan;99963.84;4920407;28;20228;-89
2023/09/14 09:32:58;;;;;;;10.70;8.50;;;;;;;22.23;nan;99966.56;4923534;28;20459;-90
2023/09/14 09:35:28;;;;;;;12.03;9.00;;;;;;;22.28;nan;99958.06;4921499;28;20495;-88
2023/09/14 09:37:58;;;;;;;11.17;8.03;;;;;;;22.28;nan;99958.06;4918320;28;20472;-89
2023/09/14 09:40:25;;;;;;;11.37;9.00;;;;;;;22.32;nan;99959.41;4921052;28;20502;-89
2023/09/14 09:42:52;;;;;;;10.20;7.20;;;;;;;22.37;nan;99959.75;4924470;28;20530;-88
2023/09/14 09:45:25;;;;;;;10.77;8.33;;;;;;;22.50;nan;99957.41;4918640;28;20559;-89
2023/09/14 09:47:54;;;;;;;14.13;8.70;;;;;;;22.65;nan;99960.25;4925048;28;20769;-88
2023/09/14 09:50:21;;;;;;;9.30;7.80;;;;;;;22.75;nan;99957.41;4922724;28;20700;-91
2023/09/14 09:52:48;;;;;;;10.27;8.17;;;;;;;22.84;nan;99953.72;4922990;28;20614;-90
2023/09/14 09:55:30;;;;;;;10.73;7.93;;;;;;;22.92;nan;99944.84;4919681;28;20617;-89
2023/09/14 09:57:58;;;;;;;14.30;9.40;;;;;;;23.01;nan;99949.22;4923497;28;20511;-89
2023/09/14 10:00:31;;;;;;;14.60;9.50;;;;;;;23.10;nan;99948.19;4927240;28;20475;-90
2023/09/14 10:02:58;;;;;;;14.63;10.50;;;;;;;23.09;nan;99946.53;4924776;28;21132;-89
2023/09/14 10:05:28;;;;;;;10.77;8.73;;;;;;;23.25;nan;99942.13;4922008;28;20923;-89
2023/09/14 10:08:00;;;;;;;12.03;9.27;;;;;;;23.46;nan;99931.69;4920170;28;20426;-90
2023/09/14 10:10:28;;;;;;;10.70;8.87;;;;;;;23.64;nan;99929.59;4921645;28;20427;-91
2023/09/14 10:12:55;;;;;;;9.83;8.20;;;;;;;23.80;nan;99925.22;4920912;28;20914;-90
2023/09/14 10:15:26;;;;;;;10.53;8.17;;;;;;;23.91;nan;99921.31;4919632;28;20471;-88
2023/09/14 10:17:57;;;;;;;12.83;10.17;;;;;;;24.12;nan;99921.50;4923054;28;20491;-90
2023/09/14 10:20:25;;;;;;;9.97;7.83;;;;;;;24.28;nan;99918.72;4924443;28;21444;-89
2023/09/14 10:22:52;;;;;;;11.23;10.13;;;;;;;24.35;nan;99918.81;4922852;28;20522;-89
2023/09/14 10:25:20;;;;;;;13.37;10.10;;;;;;;24.33;nan;99918.19;4921056;28;21002;-89
2023/09/14 10:27:46;;;;;;;11.50;8.90;;;;;;;24.29;nan;99919.53;4923434;28;20792;-90
2023/09/14 10:30:18;;;;;;;11.33;9.03;;;;;;;24.35;nan;99912.63;4921474;28;21124;-89
2023/09/14 10:32:48;;;;;;;11.50;9.13;;;;;;;24.41;nan;99906.53;4921746;28;20876;-88
2023/09/14 10:35:14;;;;;;;10.67;9.27;;;;;;;24.47;nan;99905.84;4923932;28;21186;-89
2023/09/14 10:37:44;;;;;;;13.50;8.87;;;;;;;24.60;nan;99897.16;4922984;28;20565;-89
2023/09/14 10:40:13;;;;;;;10.20;9.30;;;;;;;24.67;nan;99892.75;4924323;28;20463;-89
2023/09/14 10:42:41;;;;;;;11.27;9.20;;;;;;;24.70;nan;99895.88;4921311;28;20513;-91
2023/09/14 10:45:08;;;;;;;10.37;8.07;;;;;;;24.70;nan;99882.47;4920830;28;21055;-88
2023/09/14 10:47:38;;;;;;;9.80;8.03;;;;;;;24.67;nan;99882.81;4925180;28;21020;-89
2023/09/14 10:50:05;;;;;;;10.63;7.93;;;;;;;24.71;nan;99884.16;4920793;28;21180;-89
2023/09/14 10:52:33;;;;;;;9.37;6.80;;;;;;;24.82;nan;99880.19;4920517;28;20467;-89
2023/09/14 10:55:06;;;;;;;14.60;8.30;;;;;;;24.89;nan;99880.25;4922821;28;20468;-89
2023/09/14 10:57:34;;;;;;;12.60;8.37;;;;;;;24.88;nan;99876.75;4924630;28;20486;-88
2023/09/14 11:00:04;;;;;;;15.73;9.00;;;;;;;24.84;nan;99878.13;4925529;28;20495;-89
2023/09/14 11:02:43;;;;;;;13.20;8.50;;;;;;;24.84;nan;99866.53;4918126;28;20877;-90
2023/09/14 11:05:19;;;;;;;12.53;9.03;;;;;;;24.77;nan;99863.78;4921251;28;20519;-91
2023/09/14 11:07:49;;;;;;;9.23;7.50;;;;;;;24.78;nan;99862.75;4922669;28;20452;-89
2023/09/14 11:10:17;;;;;;;10.43;8.80;;;;;;;24.82;nan;99860.53;4921362;28;20473;-88
2023/09/14 11:12:46;;;;;;;9.13;7.20;;;;;;;24.79;nan;99864.44;4916635;28;20458;-89
2023/09/14 11:15:15;;;;;;;9.77;7.10;;;;;;;24.83;nan;99851.44;4921304;28;21188;-90
2023/09/14 11:17:45;;;;;;;8.13;7.27;;;;;;;24.87;nan;99856.28;4920769;28;20491;-90
2023/09/14 11:20:20;;;;;;;8.60;7.03;;;;;;;24.95;nan;99853.50;4914774;28;20804;-89
2023/09/14 11:22:52;;;;;;;7.30;6.27;;;;;;;24.95;nan;99853.50;4913687;28;20500;-88
2023/09/14 11:25:44;;;;;;;6.73;5.97;;;;;;;24.97;nan;99844.41;4919046;28;20456;-89
2023/09/14 11:28:21;;;;;;;8.70;6.40;;;;;;;24.92;nan;99848.50;4917743;28;20488;-90
2023/09/14 11:30:49;;;;;;;6.57;5.67;;;;;;;24.88;nan;99833.75;4916961;28;20487;-89
2023/09/14 11:33:18;;;;;;;6.73;5.57;;;;;;;24.92;nan;99840.44;4920996;28;20502;-89
2023/09/14 11:35:50;;;;;;;10.50;7.07;;;;;;;24.92;nan;99839.59;4920804;28;20446;-90
2023/09/14 11:38:22;;;;;;;5.60;5.03;;;;;;;25.00;nan;99830.59;4915384;28;20508;-89
2023/09/14 11:40:48;;;;;;;5.60;4.47;;;;;;;25.09;nan;99826.81;4914811;28;20480;-89
2023/09/14 11:43:25;;;;;;;5.53;5.03;;;;;;;25.12;nan;99823.75;4916203;28;20464;-89
2023/09/14 11:46:00;;;;;;;5.63;4.63;;;;;;;25.12;nan;99826.44;4918283;28;20200;-89